Time;durP1;ratioP1;P1;durP2;ratioP2;P2;SDS_P1;SDS_P2;PMS_P1;PMS_P2;Temp;Humidity;BMP_temperature;BMP_pressure;BME280_temperature;BME280_humidity;BME280_pressure;Samples;Min_cycle;Max_cycle;Signal;HPM_P1;HPM_P2
2023/02/08 00:00:16;;;;;;;28.25;21.33;;;-0.10;99.90;;;;;;2090583;28;20021;-71
2023/02/08 00:01:19;;;;;;;25.95;21.02;;;-0.10;99.90;;;;;;2089960;28;20045;-71
2023/02/08 00:02:19;;;;;;;28.00;19.98;;;-0.10;99.90;;;;;;2091371;28;20023;-71
2023/02/08 00:03:20;;;;;;;24.77;19.90;;;-0.10;99.90;;;;;;2091010;28;20043;-71
2023/02/08 00:04:20;;;;;;;26.85;20.58;;;-0.10;99.90;;;;;;2090229;28;20041;-71
2023/02/08 00:05:21;;;;;;;30.35;21.42;;;-0.10;99.90;;;;;;2090796;28;20112;-71
2023/02/08 00:06:21;;;;;;;26.95;20.55;;;-0.10;99.90;;;;;;2090002;28;20033;-71
2023/02/08 00:07:22;;;;;;;24.58;20.27;;;-0.10;99.90;;;;;;2092654;28;20048;-71
2023/02/08 00:08:22;;;;;;;25.00;18.98;;;-0.10;99.90;;;;;;2092750;28;20044;-71
2023/02/08 00:09:23;;;;;;;24.63;19.98;;;-0.10;99.90;;;;;;2090947;28;20673;-71
2023/02/08 00:10:23;;;;;;;21.50;18.48;;;-0.10;99.90;;;;;;2090315;28;20029;-71
2023/02/08 00:11:24;;;;;;;24.60;20.92;;;-0.10;99.90;;;;;;2093970;28;20357;-71
2023/02/08 00:12:27;;;;;;;25.08;20.88;;;-0.20;99.90;;;;;;2092199;28;20028;-71
2023/02/08 00:13:27;;;;;;;25.17;22.08;;;-0.20;99.90;;;;;;2092070;28;20036;-71
2023/02/08 00:14:28;;;;;;;23.83;20.52;;;-0.20;99.90;;;;;;2093396;28;20029;-71
2023/02/08 00:15:28;;;;;;;25.23;20.88;;;-0.20;99.90;;;;;;2093753;28;20051;-71
2023/02/08 00:16:29;;;;;;;25.10;20.10;;;-0.20;99.90;;;;;;2095991;28;20036;-71
2023/02/08 00:17:30;;;;;;;25.95;20.08;;;-0.20;99.90;;;;;;2094515;28;20036;-71
2023/02/08 00:18:30;;;;;;;26.92;20.80;;;-0.20;99.90;;;;;;2093667;28;20029;-71
2023/02/08 00:19:31;;;;;;;24.23;18.98;;;-0.20;99.90;;;;;;2093211;28;20974;-71
2023/02/08 00:20:31;;;;;;;25.77;19.92;;;-0.20;99.90;;;;;;2091256;28;20029;-71
2023/02/08 00:21:32;;;;;;;28.17;21.45;;;-0.30;99.90;;;;;;2094411;28;20039;-71
2023/02/08 00:22:32;;;;;;;25.58;20.80;;;-0.30;99.90;;;;;;2091822;28;20748;-71
2023/02/08 00:23:33;;;;;;;25.65;18.40;;;-0.20;99.90;;;;;;2092644;28;20462;-71
2023/02/08 00:24:36;;;;;;;25.20;19.83;;;-0.30;99.90;;;;;;2092764;28;20028;-71
2023/02/08 00:25:37;;;;;;;27.25;20.05;;;-0.30;99.90;;;;;;2093134;28;20029;-71
2023/02/08 00:26:38;;;;;;;24.73;21.25;;;-0.30;99.90;;;;;;2092943;28;20492;-71
2023/02/08 00:27:38;;;;;;;26.00;20.67;;;-0.30;99.90;;;;;;2092776;28;20417;-71
2023/02/08 00:28:39;;;;;;;24.35;19.48;;;-0.30;99.90;;;;;;2092421;28;20039;-71
2023/02/08 00:29:39;;;;;;;26.02;19.90;;;-0.30;99.90;;;;;;2093036;28;20075;-71
2023/02/08 00:30:40;;;;;;;25.67;21.05;;;-0.30;99.90;;;;;;2092573;28;20042;-71
2023/02/08 00:31:41;;;;;;;26.98;22.35;;;-0.30;99.90;;;;;;2092236;28;20033;-71
2023/02/08 00:32:41;;;;;;;25.63;22.27;;;-0.30;99.90;;;;;;2093124;28;20029;-71
2023/02/08 00:33:42;;;;;;;25.40;22.25;;;-0.30;99.90;;;;;;2092118;28;20017;-71
2023/02/08 00:34:43;;;;;;;24.85;21.67;;;-0.20;99.90;;;;;;2091489;28;20032;-71
2023/02/08 00:35:44;;;;;;;27.88;23.67;;;-0.30;99.90;;;;;;2091157;28;20036;-71
2023/02/08 00:36:44;;;;;;;28.20;24.33;;;-0.30;99.90;;;;;;2093896;28;20024;-71
2023/02/08 00:37:45;;;;;;;27.75;22.70;;;-0.30;99.90;;;;;;2093611;28;20510;-71
2023/02/08 00:38:46;;;;;;;27.65;23.02;;;-0.30;99.90;;;;;;2095910;28;20032;-71
2023/02/08 00:39:46;;;;;;;27.23;23.50;;;-0.30;99.90;;;;;;2090893;28;20025;-71
2023/02/08 00:40:47;;;;;;;26.67;22.05;;;-0.30;99.90;;;;;;2091237;28;20477;-71
2023/02/08 00:41:47;;;;;;;25.33;21.05;;;-0.30;99.90;;;;;;2092086;28;20028;-71
2023/02/08 00:42:48;;;;;;;25.30;21.95;;;-0.30;99.90;;;;;;2091510;28;20032;-71
2023/02/08 00:43:48;;;;;;;25.27;22.02;;;-0.30;99.90;;;;;;2091036;28;20082;-71
2023/02/08 00:44:49;;;;;;;24.58;21.20;;;-0.30;99.90;;;;;;2092021;28;20036;-71
2023/02/08 00:45:54;;;;;;;23.73;21.13;;;-0.40;99.90;;;;;;2092074;28;20047;-71
2023/02/08 00:46:55;;;;;;;25.80;22.15;;;-0.30;99.90;;;;;;2091030;28;20035;-71
2023/02/08 00:47:55;;;;;;;25.40;22.73;;;-0.40;99.90;;;;;;2092884;28;20571;-71
2023/02/08 00:48:56;;;;;;;26.58;22.55;;;-0.40;99.90;;;;;;2091742;28;20025;-71
2023/02/08 00:49:56;;;;;;;24.85;22.23;;;-0.40;99.90;;;;;;2091713;28;20037;-71
2023/02/08 00:51:03;;;;;;;27.38;22.23;;;-0.40;99.90;;;;;;2091487;28;20036;-71
2023/02/08 00:52:03;;;;;;;28.30;23.40;;;-0.40;99.90;;;;;;2093425;28;20434;-71
2023/02/08 00:53:04;;;;;;;26.45;22.55;;;-0.40;99.90;;;;;;2093725;28;20098;-71
2023/02/08 00:54:04;;;;;;;25.67;21.67;;;-0.40;99.90;;;;;;2093163;28;20029;-71
2023/02/08 00:55:05;;;;;;;27.42;23.38;;;-0.40;99.90;;;;;;2090593;28;20036;-71
2023/02/08 00:56:07;;;;;;;23.20;20.42;;;-0.40;99.90;;;;;;2092824;28;20365;-71
2023/02/08 00:57:08;;;;;;;24.08;20.52;;;-0.40;99.90;;;;;;2093304;28;20040;-71
2023/02/08 00:58:11;;;;;;;27.67;21.58;;;-0.40;99.90;;;;;;2092131;28;20048;-71
2023/02/08 00:59:11;;;;;;;25.85;22.50;;;-0.40;99.90;;;;;;2094550;28;20068;-71
2023/02/08 01:00:12;;;;;;;27.48;22.63;;;-0.40;99.90;;;;;;2091728;28;20028;-71
2023/02/08 01:01:13;;;;;;;26.88;23.02;;;-0.40;99.90;;;;;;2092127;28;20516;-71
2023/02/08 01:02:14;;;;;;;27.63;23.38;;;-0.50;99.90;;;;;;2093373;28;20111;-71
2023/02/08 01:03:15;;;;;;;26.05;23.13;;;-0.40;99.90;;;;;;2089972;28;20025;-71
2023/02/08 01:04:15;;;;;;;24.73;21.05;;;-0.50;99.90;;;;;;2092282;28;20050;-71
2023/02/08 01:05:16;;;;;;;27.92;22.85;;;-0.50;99.90;;;;;;2091390;28;20392;-71
2023/02/08 01:06:17;;;;;;;29.23;23.88;;;-0.50;99.90;;;;;;2092865;28;20043;-71
2023/02/08 01:07:17;;;;;;;29.00;23.65;;;-0.50;99.90;;;;;;2094039;28;20500;-71
2023/02/08 01:08:19;;;;;;;24.50;20.88;;;-0.50;99.90;;;;;;2090500;28;20420;-71
2023/02/08 01:09:20;;;;;;;26.70;23.58;;;-0.50;99.90;;;;;;2094111;28;20055;-71
2023/02/08 01:10:20;;;;;;;25.73;22.95;;;-0.50;99.90;;;;;;2092712;28;20051;-70
2023/02/08 01:11:24;;;;;;;26.42;20.23;;;-0.60;99.90;;;;;;2092075;28;20587;-70
2023/02/08 01:12:24;;;;;;;28.20;22.45;;;-0.60;99.90;;;;;;2093546;28;20032;-70
2023/02/08 01:13:25;;;;;;;23.15;20.70;;;-0.60;99.90;;;;;;2092976;28;20032;-71
2023/02/08 01:14:25;;;;;;;25.98;21.83;;;-0.60;99.90;;;;;;2091154;28;21390;-71
2023/02/08 01:15:26;;;;;;;23.83;20.20;;;-0.60;99.90;;;;;;2092737;28;20024;-71
2023/02/08 01:16:30;;;;;;;26.55;22.85;;;-0.60;99.90;;;;;;2090346;28;20009;-71
2023/02/08 01:17:30;;;;;;;25.55;21.30;;;-0.60;99.90;;;;;;2093663;28;20117;-71
2023/02/08 01:18:31;;;;;;;23.48;21.08;;;-0.60;99.90;;;;;;2093678;28;20553;-71
2023/02/08 01:19:32;;;;;;;31.17;22.38;;;-0.60;99.90;;;;;;2093089;28;20447;-71
2023/02/08 01:20:35;;;;;;;24.92;20.95;;;-0.60;99.90;;;;;;2093316;28;20502;-71
2023/02/08 01:21:39;;;;;;;25.90;22.60;;;-0.60;99.90;;;;;;2091938;28;20024;-71
2023/02/08 01:22:40;;;;;;;24.38;21.88;;;-0.70;99.90;;;;;;2092255;28;20463;-71
2023/02/08 01:23:40;;;;;;;24.83;21.33;;;-0.60;99.90;;;;;;2091408;28;20029;-71
2023/02/08 01:24:41;;;;;;;25.42;21.42;;;-0.60;99.90;;;;;;2092725;28;20045;-71
2023/02/08 01:25:41;;;;;;;25.05;21.25;;;-0.70;99.90;;;;;;2092389;28;20496;-71
2023/02/08 01:26:42;;;;;;;30.08;24.33;;;-0.70;99.90;;;;;;2092184;28;20057;-71
2023/02/08 01:27:43;;;;;;;24.45;20.95;;;-0.70;99.90;;;;;;2091580;28;21273;-71
2023/02/08 01:28:43;;;;;;;24.75;21.30;;;-0.70;99.90;;;;;;2093832;28;20044;-71
2023/02/08 01:29:44;;;;;;;24.80;22.10;;;-0.70;99.90;;;;;;2092738;28;21040;-71
2023/02/08 01:30:44;;;;;;;23.33;20.38;;;-0.70;99.90;;;;;;2089147;28;20024;-71
2023/02/08 01:31:45;;;;;;;27.58;22.02;;;-0.70;99.90;;;;;;2100237;28;20024;-71
2023/02/08 01:32:46;;;;;;;30.05;23.23;;;-0.70;99.90;;;;;;2099250;28;20020;-71
2023/02/08 01:33:46;;;;;;;30.10;22.98;;;-0.70;99.90;;;;;;2092843;28;20512;-71
2023/02/08 01:34:47;;;;;;;23.83;21.10;;;-0.70;99.90;;;;;;2090888;28;20073;-70
2023/02/08 01:35:51;;;;;;;26.70;22.25;;;-0.70;99.90;;;;;;2091984;28;20024;-71
2023/02/08 01:36:52;;;;;;;31.10;21.88;;;-0.70;99.90;;;;;;2092467;28;20029;-71
2023/02/08 01:37:52;;;;;;;25.95;20.88;;;-0.80;99.90;;;;;;2092304;28;20020;-70
2023/02/08 01:38:53;;;;;;;27.85;22.63;;;-0.70;99.90;;;;;;2093553;28;20031;-71
2023/02/08 01:39:54;;;;;;;25.33;21.00;;;-0.80;99.90;;;;;;2092188;28;20508;-71
2023/02/08 01:40:54;;;;;;;27.48;23.92;;;-0.80;99.90;;;;;;2084790;28;20148;-71
2023/02/08 01:41:55;;;;;;;26.33;22.63;;;-0.70;99.90;;;;;;2089018;28;20043;-71
2023/02/08 01:42:55;;;;;;;25.77;21.80;;;-0.80;99.90;;;;;;2089510;28;20021;-71
2023/02/08 01:44:05;;;;;;;27.08;22.10;;;-0.80;99.90;;;;;;2093023;28;20037;-71
2023/02/08 01:45:15;;;;;;;24.00;20.98;;;-0.80;99.90;;;;;;2092908;28;20029;-71
2023/02/08 01:46:15;;;;;;;25.60;20.85;;;-0.80;99.90;;;;;;2091164;28;20017;-71
2023/02/08 01:47:16;;;;;;;31.17;23.55;;;-0.80;99.90;;;;;;2091011;28;20483;-71
2023/02/08 01:48:28;;;;;;;30.48;24.55;;;-0.80;99.90;;;;;;2090622;28;20435;-71
2023/02/08 01:49:33;;;;;;;28.63;22.20;;;-0.90;99.90;;;;;;2091612;28;20086;-71
2023/02/08 01:51:00;;;;;;;29.83;23.73;;;-0.80;99.90;;;;;;2090870;28;20121;-71
2023/02/08 01:52:09;;;;;;;27.30;22.80;;;-0.80;99.90;;;;;;2092878;28;20029;-71
2023/02/08 01:53:10;;;;;;;30.73;24.85;;;-0.90;99.90;;;;;;2092035;28;20040;-71
2023/02/08 01:54:13;;;;;;;30.98;22.98;;;-0.90;99.90;;;;;;2090828;28;20052;-71
2023/02/08 01:55:22;;;;;;;25.75;21.60;;;-0.90;99.90;;;;;;2088386;28;20120;-71
2023/02/08 01:56:28;;;;;;;27.48;22.45;;;-0.90;99.90;;;;;;2091626;28;20431;-71
2023/02/08 01:57:29;;;;;;;26.20;21.67;;;-0.90;99.90;;;;;;2090708;28;20033;-71
2023/02/08 01:58:33;;;;;;;26.30;21.15;;;-0.90;99.90;;;;;;2090873;28;20029;-71
2023/02/08 02:00:00;;;;;;;25.40;21.25;;;-0.90;99.90;;;;;;2092566;28;20027;-71
2023/02/08 02:01:01;;;;;;;25.27;20.02;;;-0.90;99.90;;;;;;2093447;28;20074;-71
2023/02/08 02:02:03;;;;;;;24.17;20.05;;;-0.90;99.90;;;;;;2089732;28;20551;-71
2023/02/08 02:03:05;;;;;;;25.38;21.48;;;-0.90;99.90;;;;;;2092583;28;20054;-71
2023/02/08 02:04:07;;;;;;;25.55;21.13;;;-0.90;99.90;;;;;;2091738;28;20029;-71
2023/02/08 02:05:08;;;;;;;25.80;22.02;;;-0.90;99.90;;;;;;2092776;28;20790;-71
2023/02/08 02:06:20;;;;;;;28.52;22.25;;;-0.90;99.90;;;;;;2087171;28;20024;-71
2023/02/08 02:07:25;;;;;;;26.38;20.85;;;-0.90;99.90;;;;;;2095264;28;20016;-71
2023/02/08 02:08:25;;;;;;;25.27;21.63;;;-0.90;99.90;;;;;;2093745;28;20029;-71
2023/02/08 02:09:34;;;;;;;23.35;20.77;;;-1.00;99.90;;;;;;2092154;28;20039;-71
2023/02/08 02:10:36;;;;;;;22.88;19.38;;;-0.90;99.90;;;;;;2092000;28;20024;-71
2023/02/08 02:11:37;;;;;;;25.25;21.90;;;-0.90;99.90;;;;;;2090145;28;20021;-71
2023/02/08 02:12:40;;;;;;;24.08;19.88;;;-0.90;99.90;;;;;;2092888;28;20054;-71
2023/02/08 02:13:41;;;;;;;23.40;20.67;;;-0.90;99.90;;;;;;2092508;28;20025;-71
2023/02/08 02:14:43;;;;;;;25.13;20.55;;;-1.00;99.90;;;;;;2091050;28;20067;-71
2023/02/08 02:15:44;;;;;;;23.77;19.73;;;-0.90;99.90;;;;;;2091997;28;20690;-71
2023/02/08 02:16:45;;;;;;;24.25;19.65;;;-1.00;99.90;;;;;;2092394;28;20028;-71
2023/02/08 02:17:45;;;;;;;24.95;19.63;;;-1.00;99.90;;;;;;2092262;28;20053;-71
2023/02/08 02:18:46;;;;;;;24.15;20.90;;;-1.00;99.90;;;;;;2091296;28;20017;-70
2023/02/08 02:20:02;;;;;;;27.58;21.55;;;-1.00;99.90;;;;;;2090307;28;20021;-70
2023/02/08 02:21:39;;;;;;;24.30;20.80;;;-1.00;99.90;;;;;;2092429;28;20021;-71
2023/02/08 02:22:54;;;;;;;24.40;20.30;;;-1.00;99.90;;;;;;2092500;28;20028;-70
2023/02/08 02:24:10;;;;;;;25.58;20.33;;;-1.10;99.90;;;;;;2089458;28;20028;-71
2023/02/08 02:25:19;;;;;;;27.27;20.95;;;-1.10;99.90;;;;;;2090412;28;20024;-70
2023/02/08 02:26:38;;;;;;;25.75;21.33;;;-1.10;99.90;;;;;;2092478;28;20033;-70
2023/02/08 02:27:45;;;;;;;24.40;20.65;;;-1.10;99.90;;;;;;2091281;28;20029;-71
2023/02/08 02:29:30;;;;;;;24.90;19.70;;;-1.20;99.90;;;;;;2090696;28;20036;-71
2023/02/08 02:31:15;;;;;;;28.02;20.00;;;-1.20;99.90;;;;;;2090605;28;20033;-70
2023/02/08 02:32:37;;;;;;;24.13;18.90;;;-1.20;99.90;;;;;;2090866;28;20021;-71
2023/02/08 02:34:04;;;;;;;22.15;19.45;;;-1.20;99.90;;;;;;2089934;28;20032;-71
2023/02/08 02:35:43;;;;;;;24.42;19.55;;;-1.30;99.90;;;;;;2090635;28;20476;-71
2023/02/08 02:37:01;;;;;;;23.65;19.80;;;-1.20;99.90;;;;;;2092223;28;20024;-71
2023/02/08 02:38:33;;;;;;;24.02;20.23;;;-1.30;99.90;;;;;;2092873;28;20024;-71
2023/02/08 02:40:03;;;;;;;22.02;18.73;;;-1.30;99.90;;;;;;2089169;28;20036;-70
2023/02/08 02:41:12;;;;;;;26.20;18.05;;;-1.30;99.90;;;;;;2090543;28;20118;-71
2023/02/08 02:43:54;;;;;;;22.85;19.23;;;-1.30;99.90;;;;;;2092500;28;20024;-71
2023/02/08 02:45:13;;;;;;;21.45;19.13;;;-1.30;99.90;;;;;;2092187;28;20488;-70
2023/02/08 02:46:45;;;;;;;29.10;19.77;;;-1.30;99.90;;;;;;2091448;28;21683;-71
2023/02/08 02:47:55;;;;;;;28.58;21.35;;;-1.30;99.90;;;;;;2091539;28;20032;-70
2023/02/08 02:49:16;;;;;;;22.50;19.60;;;-1.30;99.90;;;;;;2088849;28;20059;-70
2023/02/08 02:50:32;;;;;;;20.70;18.25;;;-1.30;99.90;;;;;;2088789;28;20044;-71
2023/02/08 02:51:57;;;;;;;24.92;19.88;;;-1.30;99.90;;;;;;2091796;28;20124;-71
2023/02/08 02:53:16;;;;;;;21.27;17.70;;;-1.30;99.90;;;;;;2091065;28;20028;-71
2023/02/08 02:54:33;;;;;;;22.03;18.63;;;-1.30;99.90;;;;;;2091653;28;20476;-71
2023/02/08 02:55:40;;;;;;;22.30;18.80;;;-1.40;99.90;;;;;;2091363;28;20266;-72
2023/02/08 02:56:54;;;;;;;24.10;19.08;;;-1.30;99.90;;;;;;2090094;28;20423;-71
2023/02/08 02:57:58;;;;;;;20.98;18.75;;;-1.30;99.90;;;;;;2090037;28;20020;-70
2023/02/08 02:59:03;;;;;;;23.27;19.00;;;-1.30;99.90;;;;;;2092003;28;20969;-71
2023/02/08 03:00:18;;;;;;;23.65;20.55;;;-1.30;99.90;;;;;;2091335;28;20063;-71
2023/02/08 03:01:24;;;;;;;20.65;18.45;;;-1.30;99.90;;;;;;2094679;28;20020;-71
2023/02/08 03:02:26;;;;;;;21.70;18.50;;;-1.30;99.90;;;;;;2090658;28;20044;-71
2023/02/08 03:03:31;;;;;;;23.05;19.60;;;-1.30;99.90;;;;;;2092217;28;20104;-71
2023/02/08 03:04:32;;;;;;;22.33;19.00;;;-1.30;99.90;;;;;;2090878;28;20042;-70
2023/02/08 03:05:33;;;;;;;22.70;18.85;;;-1.30;99.90;;;;;;2092669;28;20071;-71
2023/02/08 03:06:40;;;;;;;21.55;19.25;;;-1.30;99.90;;;;;;2090406;28;20047;-71
2023/02/08 03:07:59;;;;;;;22.42;18.85;;;-1.30;99.90;;;;;;2091663;28;20116;-71
2023/02/08 03:09:18;;;;;;;23.70;19.45;;;-1.30;99.90;;;;;;2094521;28;20618;-71
2023/02/08 03:10:42;;;;;;;23.23;19.67;;;-1.30;99.90;;;;;;2094035;28;20508;-71
2023/02/08 03:12:07;;;;;;;22.30;18.95;;;-1.30;99.90;;;;;;2091145;28;20128;-71
2023/02/08 03:13:30;;;;;;;21.33;18.95;;;-1.40;99.90;;;;;;2091692;28;20576;-71
2023/02/08 03:14:46;;;;;;;21.63;18.35;;;-1.40;99.90;;;;;;2093064;28;20107;-71
2023/02/08 03:15:52;;;;;;;19.98;17.88;;;-1.40;99.90;;;;;;2089125;28;20029;-70
2023/02/08 03:17:09;;;;;;;21.10;17.60;;;-1.40;99.90;;;;;;2092202;28;20150;-70
2023/02/08 03:18:29;;;;;;;18.52;16.58;;;-1.40;99.90;;;;;;2089756;28;20017;-71
2023/02/08 03:19:52;;;;;;;20.23;18.02;;;-1.40;99.90;;;;;;2090287;28;20480;-71
2023/02/08 03:21:15;;;;;;;21.23;18.80;;;-1.40;99.90;;;;;;2090521;28;20561;-71
2023/02/08 03:22:21;;;;;;;19.00;17.00;;;-1.40;99.90;;;;;;2091911;28;20111;-70
2023/02/08 03:23:28;;;;;;;23.02;18.10;;;-1.50;99.90;;;;;;2091283;28;20623;-70
2023/02/08 03:24:34;;;;;;;21.77;18.77;;;-1.40;99.90;;;;;;2092023;28;20036;-71
2023/02/08 03:25:49;;;;;;;18.63;16.73;;;-1.40;99.90;;;;;;2090926;28;20020;-71
2023/02/08 03:27:07;;;;;;;20.27;18.00;;;-1.40;99.90;;;;;;2092118;28;20025;-70
2023/02/08 03:28:19;;;;;;;22.42;18.30;;;-1.40;99.90;;;;;;2091753;28;20949;-70
2023/02/08 03:29:53;;;;;;;18.52;16.63;;;-1.40;99.90;;;;;;2091546;28;20396;-71
2023/02/08 03:31:22;;;;;;;20.48;17.52;;;-1.40;99.90;;;;;;2076117;28;20471;-71
2023/02/08 03:32:34;;;;;;;19.95;17.58;;;-1.50;99.90;;;;;;2092013;28;20116;-71
2023/02/08 03:33:53;;;;;;;22.52;20.13;;;-1.50;99.90;;;;;;2092296;28;20037;-71
2023/02/08 03:34:59;;;;;;;21.25;17.73;;;-1.50;99.90;;;;;;2090617;28;20094;-70
2023/02/08 03:36:31;;;;;;;20.15;17.88;;;-1.50;99.90;;;;;;2088799;28;20385;-70
2023/02/08 03:37:37;;;;;;;24.23;19.10;;;-1.50;99.90;;;;;;2081139;28;20087;-70
2023/02/08 03:38:42;;;;;;;19.88;16.38;;;-1.50;99.90;;;;;;2091319;28;20101;-71
2023/02/08 03:39:46;;;;;;;21.63;17.48;;;-1.50;99.90;;;;;;2088485;28;20083;-71
2023/02/08 03:40:52;;;;;;;21.60;18.15;;;-1.50;99.90;;;;;;2090811;28;20027;-71
2023/02/08 03:41:58;;;;;;;21.85;18.23;;;-1.50;99.90;;;;;;2088926;28;20025;-71
2023/02/08 03:43:05;;;;;;;20.92;17.95;;;-1.50;99.90;;;;;;2091378;28;20767;-71
2023/02/08 03:44:11;;;;;;;21.50;18.20;;;-1.50;99.90;;;;;;2088737;28;20067;-71
2023/02/08 03:45:18;;;;;;;19.02;16.98;;;-1.50;99.90;;;;;;2091188;28;20028;-71
2023/02/08 03:46:33;;;;;;;21.25;17.83;;;-1.50;99.90;;;;;;2090065;28;20016;-70
2023/02/08 03:47:38;;;;;;;23.40;18.98;;;-1.50;99.90;;;;;;2091668;28;20021;-71
2023/02/08 03:48:45;;;;;;;21.98;19.27;;;-1.50;99.90;;;;;;2089658;28;20439;-71
2023/02/08 03:49:51;;;;;;;19.92;17.92;;;-1.50;99.90;;;;;;2090210;28;20042;-71
2023/02/08 03:50:54;;;;;;;22.50;18.40;;;-1.50;99.90;;;;;;2089213;28;20434;-71
2023/02/08 03:51:59;;;;;;;21.75;18.77;;;-1.50;99.90;;;;;;2089997;28;20187;-71
2023/02/08 03:53:00;;;;;;;20.52;18.33;;;-1.50;99.90;;;;;;2090734;28;20115;-71
2023/02/08 03:54:06;;;;;;;22.15;19.25;;;-1.50;99.90;;;;;;2091117;28;20025;-71
2023/02/08 03:55:13;;;;;;;23.05;18.90;;;-1.50;99.90;;;;;;2090807;28;20016;-71
2023/02/08 03:56:20;;;;;;;20.70;17.77;;;-1.50;99.90;;;;;;2091095;28;20028;-71
2023/02/08 03:57:28;;;;;;;21.17;17.70;;;-1.50;99.90;;;;;;2090738;28;20511;-71
2023/02/08 03:58:37;;;;;;;21.50;18.92;;;-1.50;99.90;;;;;;2088668;28;20082;-71
2023/02/08 03:59:40;;;;;;;20.30;17.95;;;-1.50;99.90;;;;;;2089573;28;20049;-71
2023/02/08 04:00:47;;;;;;;22.10;17.73;;;-1.50;99.90;;;;;;2089924;28;20078;-71
2023/02/08 04:01:56;;;;;;;22.52;17.95;;;-1.50;99.90;;;;;;2088715;28;20747;-70
2023/02/08 04:03:14;;;;;;;21.13;18.67;;;-1.50;99.90;;;;;;2091898;28;20043;-70
2023/02/08 04:04:18;;;;;;;19.67;17.27;;;-1.60;99.90;;;;;;2090523;28;20263;-71
2023/02/08 04:05:20;;;;;;;20.77;17.60;;;-1.60;99.90;;;;;;2092856;28;20024;-71
2023/02/08 04:06:22;;;;;;;21.95;19.17;;;-1.60;99.90;;;;;;2090301;28;22375;-71
2023/02/08 04:07:22;;;;;;;18.77;16.75;;;-1.60;99.90;;;;;;2091308;28;20057;-71
2023/02/08 04:08:25;;;;;;;22.00;18.17;;;-1.60;99.90;;;;;;2090875;28;20520;-70
2023/02/08 04:09:25;;;;;;;21.88;18.55;;;-1.60;99.90;;;;;;2089925;28;20029;-71
2023/02/08 04:10:26;;;;;;;21.63;17.48;;;-1.60;99.90;;;;;;2090324;28;20557;-71
2023/02/08 04:11:27;;;;;;;21.42;16.85;;;-1.60;99.90;;;;;;2091106;28;20162;-71
2023/02/08 04:12:27;;;;;;;23.40;18.88;;;-1.60;99.90;;;;;;2090395;28;20061;-71
2023/02/08 04:13:28;;;;;;;21.30;18.15;;;-1.60;99.90;;;;;;2090437;28;20065;-71
2023/02/08 04:14:28;;;;;;;20.77;18.38;;;-1.60;99.90;;;;;;2090342;28;20021;-71
2023/02/08 04:15:29;;;;;;;20.73;18.27;;;-1.60;99.90;;;;;;2091033;28;20048;-71
2023/02/08 04:16:29;;;;;;;19.65;17.30;;;-1.60;99.90;;;;;;2090545;28;20033;-71
2023/02/08 04:17:31;;;;;;;19.00;17.00;;;-1.60;99.90;;;;;;2089466;28;20024;-71
2023/02/08 04:18:32;;;;;;;21.25;17.00;;;-1.60;99.90;;;;;;2090778;28;20071;-71
2023/02/08 04:19:32;;;;;;;18.27;16.40;;;-1.60;99.90;;;;;;2091762;28;20017;-71
2023/02/08 04:20:33;;;;;;;19.92;17.80;;;-1.60;99.90;;;;;;2085821;28;20063;-70
2023/02/08 04:21:33;;;;;;;21.13;17.15;;;-1.60;99.90;;;;;;2090835;28;20024;-70
2023/02/08 04:22:34;;;;;;;17.63;15.50;;;-1.60;99.90;;;;;;2082910;28;20025;-70
2023/02/08 04:23:34;;;;;;;18.88;16.88;;;-1.60;99.90;;;;;;2088996;28;20040;-70
2023/02/08 04:24:35;;;;;;;19.70;16.10;;;-1.60;99.90;;;;;;2087484;28;20519;-70
2023/02/08 04:25:36;;;;;;;18.90;16.90;;;-1.60;99.90;;;;;;2089760;28;20052;-70
2023/02/08 04:26:36;;;;;;;19.65;16.23;;;-1.60;99.90;;;;;;2090515;28;20449;-71
2023/02/08 04:27:37;;;;;;;20.02;17.70;;;-1.70;99.90;;;;;;2089796;28;20029;-70
2023/02/08 04:28:37;;;;;;;18.83;16.83;;;-1.60;99.90;;;;;;2091047;28;20020;-71
2023/02/08 04:29:38;;;;;;;18.15;16.02;;;-1.60;99.90;;;;;;2088212;28;20028;-71
2023/02/08 04:30:38;;;;;;;20.95;18.33;;;-1.60;99.90;;;;;;2091509;28;20025;-71
2023/02/08 04:31:39;;;;;;;19.90;17.23;;;-1.70;99.90;;;;;;2090880;28;20024;-71
2023/02/08 04:32:39;;;;;;;21.83;17.85;;;-1.70;99.90;;;;;;2091812;28;20134;-71
2023/02/08 04:33:40;;;;;;;19.30;17.30;;;-1.70;99.90;;;;;;2091773;28;20025;-70
2023/02/08 04:34:41;;;;;;;17.98;15.98;;;-1.60;99.90;;;;;;2091658;28;20036;-70
2023/02/08 04:35:41;;;;;;;19.58;17.45;;;-1.70;99.90;;;;;;2089848;28;20044;-70
2023/02/08 04:36:42;;;;;;;18.60;16.67;;;-1.70;99.90;;;;;;2090154;28;20033;-70
2023/02/08 04:37:42;;;;;;;20.45;17.73;;;-1.70;99.90;;;;;;2090468;28;20488;-70
2023/02/08 04:38:43;;;;;;;20.85;17.77;;;-1.70;99.90;;;;;;2090898;28;20029;-71
2023/02/08 04:39:44;;;;;;;20.95;17.27;;;-1.70;99.90;;;;;;2090637;28;20504;-71
2023/02/08 04:40:44;;;;;;;19.08;17.02;;;-1.70;99.90;;;;;;2090148;28;20020;-71
2023/02/08 04:41:45;;;;;;;18.30;16.30;;;-1.70;99.90;;;;;;2090801;28;20055;-71
2023/02/08 04:42:45;;;;;;;17.67;15.73;;;-1.70;99.90;;;;;;2092506;28;20032;-70
2023/02/08 04:43:46;;;;;;;18.25;15.02;;;-1.70;99.90;;;;;;2089351;28;20031;-70
2023/02/08 04:44:46;;;;;;;19.15;17.20;;;-1.70;99.90;;;;;;2090290;28;20085;-71
2023/02/08 04:45:49;;;;;;;18.58;16.60;;;-1.70;99.90;;;;;;2092164;28;20017;-71
2023/02/08 04:46:50;;;;;;;18.35;16.42;;;-1.70;99.90;;;;;;2090626;28;20025;-71
2023/02/08 04:47:51;;;;;;;21.15;17.15;;;-1.70;99.90;;;;;;2091770;28;20064;-70
2023/02/08 04:48:51;;;;;;;19.85;17.15;;;-1.70;99.90;;;;;;2089729;28;20392;-70
2023/02/08 04:49:52;;;;;;;21.20;17.38;;;-1.70;99.90;;;;;;2087535;28;20524;-71
2023/02/08 04:50:56;;;;;;;20.17;16.75;;;-1.70;99.90;;;;;;2090063;28;20044;-71
2023/02/08 04:51:57;;;;;;;18.10;15.95;;;-1.70;99.90;;;;;;2088495;28;20135;-71
2023/02/08 04:52:57;;;;;;;18.25;15.95;;;-1.70;99.90;;;;;;2093611;28;20033;-71
2023/02/08 04:53:58;;;;;;;20.08;17.10;;;-1.70;99.90;;;;;;2093285;28;20021;-70
2023/02/08 04:54:59;;;;;;;18.55;16.52;;;-1.70;99.90;;;;;;2093630;28;20013;-71
2023/02/08 04:55:59;;;;;;;19.42;16.90;;;-1.70;99.90;;;;;;2093167;28;20800;-70
2023/02/08 04:57:00;;;;;;;18.80;16.85;;;-1.70;99.90;;;;;;2090204;28;20098;-71
2023/02/08 04:58:01;;;;;;;18.30;16.42;;;-1.70;99.90;;;;;;2090642;28;20029;-71
2023/02/08 04:59:02;;;;;;;20.33;17.17;;;-1.70;99.90;;;;;;2091570;28;20151;-71
2023/02/08 05:00:03;;;;;;;19.40;17.20;;;-1.70;99.90;;;;;;2090831;28;20103;-71
2023/02/08 05:01:09;;;;;;;19.85;17.75;;;-1.70;99.90;;;;;;2091492;28;20128;-71
2023/02/08 05:02:10;;;;;;;20.40;17.27;;;-1.80;99.90;;;;;;2092342;28;20028;-71
2023/02/08 05:03:10;;;;;;;19.05;17.15;;;-1.80;99.90;;;;;;2092484;28;20099;-71
2023/02/08 05:04:11;;;;;;;21.83;18.02;;;-1.80;99.90;;;;;;2089591;28;20109;-71
2023/02/08 05:05:12;;;;;;;18.55;16.25;;;-1.80;99.90;;;;;;2091165;28;20017;-71
2023/02/08 05:06:12;;;;;;;20.05;17.75;;;-1.80;99.90;;;;;;2092388;28;20032;-71
2023/02/08 05:07:13;;;;;;;20.80;16.98;;;-1.80;99.90;;;;;;2093826;28;20463;-71
2023/02/08 05:08:13;;;;;;;19.60;17.50;;;-1.80;99.90;;;;;;2090800;28;20101;-71
2023/02/08 05:09:14;;;;;;;17.92;16.05;;;-1.80;99.90;;;;;;2091081;28;20162;-71
2023/02/08 05:10:14;;;;;;;17.70;15.82;;;-1.80;99.90;;;;;;2090300;28;20051;-71
2023/02/08 05:11:22;;;;;;;18.67;16.30;;;-1.80;99.90;;;;;;2092447;28;20029;-71
2023/02/08 05:12:23;;;;;;;18.90;16.05;;;-1.80;99.90;;;;;;2092785;28;20078;-71
2023/02/08 05:13:23;;;;;;;18.75;16.38;;;-1.90;99.90;;;;;;2091769;28;20029;-71
2023/02/08 05:14:24;;;;;;;17.83;15.93;;;-1.90;99.90;;;;;;2092249;28;20135;-71
2023/02/08 05:15:24;;;;;;;17.30;15.32;;;-1.90;99.90;;;;;;2093187;28;20017;-71
2023/02/08 05:16:25;;;;;;;18.42;16.48;;;-1.90;99.90;;;;;;2092187;28;20523;-71
2023/02/08 05:17:25;;;;;;;17.80;16.00;;;-1.90;99.90;;;;;;2091337;28;20024;-71
2023/02/08 05:18:26;;;;;;;19.90;16.88;;;-1.90;99.90;;;;;;2092848;28;20020;-71
2023/02/08 05:19:26;;;;;;;18.55;16.52;;;-1.90;99.90;;;;;;2091534;28;20028;-71
2023/02/08 05:20:28;;;;;;;18.55;15.85;;;-1.90;99.90;;;;;;2092195;28;20098;-71
2023/02/08 05:21:29;;;;;;;18.63;16.27;;;-1.90;99.90;;;;;;2090504;28;20027;-71
2023/02/08 05:22:31;;;;;;;20.10;17.73;;;-1.90;99.90;;;;;;2090031;28;20039;-71
2023/02/08 05:23:32;;;;;;;18.95;16.83;;;-1.90;99.90;;;;;;2090736;28;20047;-71
2023/02/08 05:24:32;;;;;;;18.92;16.88;;;-1.90;99.90;;;;;;2090183;28;20727;-71
2023/02/08 05:25:33;;;;;;;18.95;16.00;;;-1.90;99.90;;;;;;2089628;28;20024;-71
2023/02/08 05:26:33;;;;;;;19.75;16.88;;;-1.90;99.90;;;;;;2093582;28;20036;-71
2023/02/08 05:27:34;;;;;;;19.40;16.90;;;-1.90;99.90;;;;;;2093356;28;20104;-71
2023/02/08 05:28:36;;;;;;;19.48;16.55;;;-1.90;99.90;;;;;;2091940;28;20041;-71
2023/02/08 05:29:36;;;;;;;20.35;17.20;;;-1.90;99.90;;;;;;2091032;28;20051;-71
2023/02/08 05:30:37;;;;;;;17.50;15.63;;;-1.90;99.90;;;;;;2092441;28;20028;-71
2023/02/08 05:31:38;;;;;;;18.33;16.40;;;-1.90;99.90;;;;;;2091324;28;20016;-71